sensor_id;sensor_type;location;lat;lon;timestamp;temperature;humidity
31809;DHT22;18379;48.208;-1.518;2024-03-29T00:00:22;8.60;99.90
31809;DHT22;18379;48.208;-1.518;2024-03-29T00:05:23;8.50;99.90
31809;DHT22;18379;48.208;-1.518;2024-03-29T00:10:23;8.50;99.90
31809;DHT22;18379;48.208;-1.518;2024-03-29T00:15:24;8.30;99.90
31809;DHT22;18379;48.208;-1.518;2024-03-29T00:20:25;8.30;99.90
31809;DHT22;18379;48.208;-1.518;2024-03-29T00:25:25;8.30;99.90
31809;DHT22;18379;48.208;-1.518;2024-03-29T00:30:26;8.40;99.90
31809;DHT22;18379;48.208;-1.518;2024-03-29T00:35:27;8.40;99.90
31809;DHT22;18379;48.208;-1.518;2024-03-29T00:40:27;8.30;99.90
31809;DHT22;18379;48.208;-1.518;2024-03-29T00:45:28;8.30;99.90
31809;DHT22;18379;48.208;-1.518;2024-03-29T00:50:29;8.30;99.90
31809;DHT22;18379;48.208;-1.518;2024-03-29T00:55:30;8.30;99.90
31809;DHT22;18379;48.208;-1.518;2024-03-29T01:00:31;8.20;99.90
31809;DHT22;18379;48.208;-1.518;2024-03-29T01:05:31;8.10;99.90
31809;DHT22;18379;48.208;-1.518;2024-03-29T01:10:32;8.10;99.90
31809;DHT22;18379;48.208;-1.518;2024-03-29T01:15:32;8.20;99.90
31809;DHT22;18379;48.208;-1.518;2024-03-29T01:20:33;8.20;99.90
31809;DHT22;18379;48.208;-1.518;2024-03-29T01:25:34;8.50;99.90
31809;DHT22;18379;48.208;-1.518;2024-03-29T01:30:35;8.50;99.90
31809;DHT22;18379;48.208;-1.518;2024-03-29T01:35:35;8.50;99.90
31809;DHT22;18379;48.208;-1.518;2024-03-29T01:40:36;8.40;99.90
31809;DHT22;18379;48.208;-1.518;2024-03-29T01:45:39;8.40;99.90
31809;DHT22;18379;48.208;-1.518;2024-03-29T01:50:40;8.30;99.90
31809;DHT22;18379;48.208;-1.518;2024-03-29T01:55:40;8.30;99.90
31809;DHT22;18379;48.208;-1.518;2024-03-29T02:00:48;8.30;99.90
31809;DHT22;18379;48.208;-1.518;2024-03-29T02:05:49;8.20;99.90
31809;DHT22;18379;48.208;-1.518;2024-03-29T02:10:50;8.20;99.90
31809;DHT22;18379;48.208;-1.518;2024-03-29T02:15:51;8.20;99.90
31809;DHT22;18379;48.208;-1.518;2024-03-29T02:20:52;8.20;99.90
31809;DHT22;18379;48.208;-1.518;2024-03-29T02:25:54;8.00;99.90
31809;DHT22;18379;48.208;-1.518;2024-03-29T02:30:54;8.00;99.90
31809;DHT22;18379;48.208;-1.518;2024-03-29T02:35:55;8.00;99.90
31809;DHT22;18379;48.208;-1.518;2024-03-29T02:40:56;8.00;99.90
31809;DHT22;18379;48.208;-1.518;2024-03-29T02:45:56;7.90;99.90
31809;DHT22;18379;48.208;-1.518;2024-03-29T02:50:57;8.00;99.90
31809;DHT22;18379;48.208;-1.518;2024-03-29T02:55:58;8.00;99.90
31809;DHT22;18379;48.208;-1.518;2024-03-29T03:01:08;7.90;99.90
31809;DHT22;18379;48.208;-1.518;2024-03-29T03:06:09;7.80;99.90
31809;DHT22;18379;48.208;-1.518;2024-03-29T03:11:09;7.80;99.90
31809;DHT22;18379;48.208;-1.518;2024-03-29T03:16:10;7.80;99.90
31809;DHT22;18379;48.208;-1.518;2024-03-29T03:21:11;7.80;99.90
31809;DHT22;18379;48.208;-1.518;2024-03-29T03:26:11;7.80;99.90
31809;DHT22;18379;48.208;-1.518;2024-03-29T03:31:12;7.80;99.90
31809;DHT22;18379;48.208;-1.518;2024-03-29T03:36:13;7.70;99.90
31809;DHT22;18379;48.208;-1.518;2024-03-29T03:41:13;7.60;99.90
31809;DHT22;18379;48.208;-1.518;2024-03-29T03:46:14;7.60;99.90
31809;DHT22;18379;48.208;-1.518;2024-03-29T03:51:15;7.70;99.90
31809;DHT22;18379;48.208;-1.518;2024-03-29T03:56:15;7.70;99.90
31809;DHT22;18379;48.208;-1.518;2024-03-29T04:01:16;7.70;99.90
31809;DHT22;18379;48.208;-1.518;2024-03-29T04:06:17;7.60;99.90
31809;DHT22;18379;48.208;-1.518;2024-03-29T04:11:17;7.70;99.90
31809;DHT22;18379;48.208;-1.518;2024-03-29T04:16:18;7.60;99.90
31809;DHT22;18379;48.208;-1.518;2024-03-29T04:21:19;7.70;99.90
31809;DHT22;18379;48.208;-1.518;2024-03-29T04:26:19;7.80;99.90
31809;DHT22;18379;48.208;-1.518;2024-03-29T04:31:20;7.80;99.90
31809;DHT22;18379;48.208;-1.518;2024-03-29T04:36:21;7.80;99.90
31809;DHT22;18379;48.208;-1.518;2024-03-29T04:41:21;7.80;99.90
31809;DHT22;18379;48.208;-1.518;2024-03-29T04:46:22;7.80;99.90
31809;DHT22;18379;48.208;-1.518;2024-03-29T04:51:23;7.80;99.90
31809;DHT22;18379;48.208;-1.518;2024-03-29T04:56:23;7.90;99.90
31809;DHT22;18379;48.208;-1.518;2024-03-29T05:01:24;7.90;99.90
31809;DHT22;18379;48.208;-1.518;2024-03-29T05:06:25;7.90;99.90
31809;DHT22;18379;48.208;-1.518;2024-03-29T05:11:25;7.90;99.90
31809;DHT22;18379;48.208;-1.518;2024-03-29T05:16:26;7.80;99.90
31809;DHT22;18379;48.208;-1.518;2024-03-29T05:21:27;7.80;99.90
31809;DHT22;18379;48.208;-1.518;2024-03-29T05:26:28;7.80;99.90
31809;DHT22;18379;48.208;-1.518;2024-03-29T05:31:28;7.70;99.90
31809;DHT22;18379;48.208;-1.518;2024-03-29T05:36:29;7.70;99.90
31809;DHT22;18379;48.208;-1.518;2024-03-29T05:41:30;7.70;99.90
31809;DHT22;18379;48.208;-1.518;2024-03-29T05:46:32;7.80;99.90
31809;DHT22;18379;48.208;-1.518;2024-03-29T05:51:33;7.80;99.90
31809;DHT22;18379;48.208;-1.518;2024-03-29T05:56:36;7.90;99.90
31809;DHT22;18379;48.208;-1.518;2024-03-29T06:01:37;8.00;99.90
31809;DHT22;18379;48.208;-1.518;2024-03-29T06:06:38;8.10;99.90
31809;DHT22;18379;48.208;-1.518;2024-03-29T06:11:38;8.20;99.90
31809;DHT22;18379;48.208;-1.518;2024-03-29T06:16:39;8.30;99.90
31809;DHT22;18379;48.208;-1.518;2024-03-29T06:21:58;8.30;99.90
31809;DHT22;18379;48.208;-1.518;2024-03-29T06:26:59;8.40;99.90
31809;DHT22;18379;48.208;-1.518;2024-03-29T06:31:59;8.50;99.90
31809;DHT22;18379;48.208;-1.518;2024-03-29T06:37:00;8.50;99.90
31809;DHT22;18379;48.208;-1.518;2024-03-29T06:42:00;8.70;99.90
31809;DHT22;18379;48.208;-1.518;2024-03-29T06:47:01;8.70;99.90
31809;DHT22;18379;48.208;-1.518;2024-03-29T06:52:03;8.80;99.90
31809;DHT22;18379;48.208;-1.518;2024-03-29T06:57:04;8.80;99.90
31809;DHT22;18379;48.208;-1.518;2024-03-29T07:02:04;8.90;99.90
31809;DHT22;18379;48.208;-1.518;2024-03-29T07:07:06;9.00;99.90
31809;DHT22;18379;48.208;-1.518;2024-03-29T07:12:07;9.20;99.90
31809;DHT22;18379;48.208;-1.518;2024-03-29T07:17:08;9.40;99.90
31809;DHT22;18379;48.208;-1.518;2024-03-29T07:22:08;9.40;99.90
31809;DHT22;18379;48.208;-1.518;2024-03-29T07:27:09;8.90;99.90
31809;DHT22;18379;48.208;-1.518;2024-03-29T07:32:11;8.80;99.90
31809;DHT22;18379;48.208;-1.518;2024-03-29T07:37:11;9.00;99.90
31809;DHT22;18379;48.208;-1.518;2024-03-29T07:42:23;9.20;99.90
31809;DHT22;18379;48.208;-1.518;2024-03-29T07:47:23;9.40;99.90
31809;DHT22;18379;48.208;-1.518;2024-03-29T07:52:36;9.40;99.90
31809;DHT22;18379;48.208;-1.518;2024-03-29T07:57:44;9.40;99.90
31809;DHT22;18379;48.208;-1.518;2024-03-29T08:02:51;9.30;99.90
31809;DHT22;18379;48.208;-1.518;2024-03-29T08:07:59;9.20;99.90
31809;DHT22;18379;48.208;-1.518;2024-03-29T08:13:18;9.30;99.90
31809;DHT22;18379;48.208;-1.518;2024-03-29T08:18:45;9.40;99.90
31809;DHT22;18379;48.208;-1.518;2024-03-29T08:23:49;9.60;99.90
31809;DHT22;18379;48.208;-1.518;2024-03-29T08:35:21;10.00;99.90
31809;DHT22;18379;48.208;-1.518;2024-03-29T08:40:29;10.10;99.90
31809;DHT22;18379;48.208;-1.518;2024-03-29T08:45:32;10.40;99.90
31809;DHT22;18379;48.208;-1.518;2024-03-29T08:50:33;10.60;99.90
31809;DHT22;18379;48.208;-1.518;2024-03-29T08:55:35;10.60;99.90
31809;DHT22;18379;48.208;-1.518;2024-03-29T09:00:51;10.40;99.90
31809;DHT22;18379;48.208;-1.518;2024-03-29T09:05:52;10.40;99.90
31809;DHT22;18379;48.208;-1.518;2024-03-29T09:10:56;10.60;99.90
31809;DHT22;18379;48.208;-1.518;2024-03-29T09:15:59;10.70;99.90
31809;DHT22;18379;48.208;-1.518;2024-03-29T09:21:00;10.90;99.90
31809;DHT22;18379;48.208;-1.518;2024-03-29T09:26:04;10.90;99.90
31809;DHT22;18379;48.208;-1.518;2024-03-29T09:31:05;11.10;99.90
31809;DHT22;18379;48.208;-1.518;2024-03-29T09:36:07;11.20;99.90
31809;DHT22;18379;48.208;-1.518;2024-03-29T09:41:16;11.30;99.90
31809;DHT22;18379;48.208;-1.518;2024-03-29T09:46:17;11.30;99.90
31809;DHT22;18379;48.208;-1.518;2024-03-29T09:51:18;11.50;99.90
31809;DHT22;18379;48.208;-1.518;2024-03-29T09:56:20;11.80;99.90
31809;DHT22;18379;48.208;-1.518;2024-03-29T10:01:22;12.10;99.90
31809;DHT22;18379;48.208;-1.518;2024-03-29T10:06:24;12.20;99.90
31809;DHT22;18379;48.208;-1.518;2024-03-29T10:11:25;12.50;99.90
31809;DHT22;18379;48.208;-1.518;2024-03-29T10:16:26;12.40;99.90
31809;DHT22;18379;48.208;-1.518;2024-03-29T10:21:30;12.40;99.90
31809;DHT22;18379;48.208;-1.518;2024-03-29T10:26:30;12.40;99.90
31809;DHT22;18379;48.208;-1.518;2024-03-29T10:31:35;12.20;99.90
31809;DHT22;18379;48.208;-1.518;2024-03-29T10:43:11;11.60;99.90
31809;DHT22;18379;48.208;-1.518;2024-03-29T10:48:23;11.50;99.90
31809;DHT22;18379;48.208;-1.518;2024-03-29T10:53:25;11.70;99.90
31809;DHT22;18379;48.208;-1.518;2024-03-29T10:58:30;12.00;99.90
31809;DHT22;18379;48.208;-1.518;2024-03-29T11:04:12;12.30;99.90
31809;DHT22;18379;48.208;-1.518;2024-03-29T11:09:15;12.70;99.90
31809;DHT22;18379;48.208;-1.518;2024-03-29T11:14:26;12.80;99.90
31809;DHT22;18379;48.208;-1.518;2024-03-29T11:19:29;13.00;99.90
31809;DHT22;18379;48.208;-1.518;2024-03-29T11:24:32;13.30;99.90
31809;DHT22;18379;48.208;-1.518;2024-03-29T11:29:32;13.70;99.90
31809;DHT22;18379;48.208;-1.518;2024-03-29T11:34:43;13.50;99.90
31809;DHT22;18379;48.208;-1.518;2024-03-29T11:39:48;13.70;99.90
31809;DHT22;18379;48.208;-1.518;2024-03-29T11:44:49;13.50;99.90
31809;DHT22;18379;48.208;-1.518;2024-03-29T11:49:56;13.30;99.90
31809;DHT22;18379;48.208;-1.518;2024-03-29T11:54:56;13.60;99.90
31809;DHT22;18379;48.208;-1.518;2024-03-29T11:59:59;13.30;99.90
31809;DHT22;18379;48.208;-1.518;2024-03-29T12:04:59;13.90;99.90
31809;DHT22;18379;48.208;-1.518;2024-03-29T12:10:00;14.40;99.90
31809;DHT22;18379;48.208;-1.518;2024-03-29T12:15:01;14.60;99.90
31809;DHT22;18379;48.208;-1.518;2024-03-29T12:20:01;14.90;99.90
31809;DHT22;18379;48.208;-1.518;2024-03-29T12:25:11;14.90;99.90
31809;DHT22;18379;48.208;-1.518;2024-03-29T12:30:12;14.10;99.90
31809;DHT22;18379;48.208;-1.518;2024-03-29T12:35:15;14.10;99.90
31809;DHT22;18379;48.208;-1.518;2024-03-29T12:40:19;13.80;99.90
31809;DHT22;18379;48.208;-1.518;2024-03-29T12:45:24;13.70;99.90
31809;DHT22;18379;48.208;-1.518;2024-03-29T12:50:30;13.80;99.90
31809;DHT22;18379;48.208;-1.518;2024-03-29T12:55:31;13.70;99.90
31809;DHT22;18379;48.208;-1.518;2024-03-29T13:00:36;13.70;99.90
31809;DHT22;18379;48.208;-1.518;2024-03-29T13:05:38;14.50;99.90
31809;DHT22;18379;48.208;-1.518;2024-03-29T13:10:42;14.80;99.90
31809;DHT22;18379;48.208;-1.518;2024-03-29T13:15:44;15.10;99.90
31809;DHT22;18379;48.208;-1.518;2024-03-29T13:20:47;15.10;99.90
31809;DHT22;18379;48.208;-1.518;2024-03-29T13:25:48;15.80;99.90
31809;DHT22;18379;48.208;-1.518;2024-03-29T13:30:49;15.60;99.90
31809;DHT22;18379;48.208;-1.518;2024-03-29T13:35:52;14.90;99.90
31809;DHT22;18379;48.208;-1.518;2024-03-29T13:40:53;14.80;99.90
31809;DHT22;18379;48.208;-1.518;2024-03-29T13:45:54;14.70;99.90
31809;DHT22;18379;48.208;-1.518;2024-03-29T13:50:55;14.80;99.90
31809;DHT22;18379;48.208;-1.518;2024-03-29T13:55:55;14.80;99.90
31809;DHT22;18379;48.208;-1.518;2024-03-29T14:00:56;15.00;99.90
31809;DHT22;18379;48.208;-1.518;2024-03-29T14:06:00;15.10;99.90
31809;DHT22;18379;48.208;-1.518;2024-03-29T14:11:01;15.10;99.90
31809;DHT22;18379;48.208;-1.518;2024-03-29T14:16:02;15.30;99.90
31809;DHT22;18379;48.208;-1.518;2024-03-29T14:21:04;15.30;99.90
31809;DHT22;18379;48.208;-1.518;2024-03-29T14:26:04;14.90;99.90
31809;DHT22;18379;48.208;-1.518;2024-03-29T14:31:05;14.70;99.90
31809;DHT22;18379;48.208;-1.518;2024-03-29T14:36:06;14.80;99.90
31809;DHT22;18379;48.208;-1.518;2024-03-29T14:41:06;14.50;99.90
31809;DHT22;18379;48.208;-1.518;2024-03-29T14:46:07;14.40;99.90
31809;DHT22;18379;48.208;-1.518;2024-03-29T14:51:08;14.40;99.90
31809;DHT22;18379;48.208;-1.518;2024-03-29T14:56:08;14.30;99.90
31809;DHT22;18379;48.208;-1.518;2024-03-29T15:01:09;14.30;99.90
31809;DHT22;18379;48.208;-1.518;2024-03-29T15:06:10;14.20;99.90
31809;DHT22;18379;48.208;-1.518;2024-03-29T15:11:10;14.20;99.90
31809;DHT22;18379;48.208;-1.518;2024-03-29T15:16:11;14.20;99.90
31809;DHT22;18379;48.208;-1.518;2024-03-29T15:21:12;14.10;99.90
31809;DHT22;18379;48.208;-1.518;2024-03-29T15:26:12;13.90;99.90
31809;DHT22;18379;48.208;-1.518;2024-03-29T15:31:15;13.80;99.90
31809;DHT22;18379;48.208;-1.518;2024-03-29T15:36:18;13.70;99.90
31809;DHT22;18379;48.208;-1.518;2024-03-29T15:41:18;13.80;99.90
31809;DHT22;18379;48.208;-1.518;2024-03-29T15:46:19;14.00;99.90
31809;DHT22;18379;48.208;-1.518;2024-03-29T15:51:20;13.90;99.90
31809;DHT22;18379;48.208;-1.518;2024-03-29T15:56:21;13.60;99.90
31809;DHT22;18379;48.208;-1.518;2024-03-29T16:01:22;13.60;99.90
31809;DHT22;18379;48.208;-1.518;2024-03-29T16:06:23;13.90;99.90
31809;DHT22;18379;48.208;-1.518;2024-03-29T16:11:35;14.20;99.90
31809;DHT22;18379;48.208;-1.518;2024-03-29T16:16:37;13.90;99.90
31809;DHT22;18379;48.208;-1.518;2024-03-29T16:21:37;13.50;99.90
31809;DHT22;18379;48.208;-1.518;2024-03-29T16:26:39;13.10;99.90
31809;DHT22;18379;48.208;-1.518;2024-03-29T16:31:40;13.70;99.90
31809;DHT22;18379;48.208;-1.518;2024-03-29T16:36:41;14.20;99.90
31809;DHT22;18379;48.208;-1.518;2024-03-29T16:41:41;14.10;99.90
31809;DHT22;18379;48.208;-1.518;2024-03-29T16:46:42;14.10;99.90
31809;DHT22;18379;48.208;-1.518;2024-03-29T16:51:43;13.70;99.90
31809;DHT22;18379;48.208;-1.518;2024-03-29T16:56:44;13.90;99.90
31809;DHT22;18379;48.208;-1.518;2024-03-29T17:01:45;13.80;99.90
31809;DHT22;18379;48.208;-1.518;2024-03-29T17:06:45;13.60;99.90
31809;DHT22;18379;48.208;-1.518;2024-03-29T17:11:46;13.50;99.90
31809;DHT22;18379;48.208;-1.518;2024-03-29T17:16:47;13.40;99.90
31809;DHT22;18379;48.208;-1.518;2024-03-29T17:21:48;13.40;99.90
31809;DHT22;18379;48.208;-1.518;2024-03-29T17:26:50;13.30;99.90
31809;DHT22;18379;48.208;-1.518;2024-03-29T17:31:51;13.30;99.90
31809;DHT22;18379;48.208;-1.518;2024-03-29T17:36:52;13.40;99.90
31809;DHT22;18379;48.208;-1.518;2024-03-29T17:41:53;13.30;99.90
31809;DHT22;18379;48.208;-1.518;2024-03-29T17:46:53;13.20;99.90
31809;DHT22;18379;48.208;-1.518;2024-03-29T17:51:56;13.30;99.90
31809;DHT22;18379;48.208;-1.518;2024-03-29T17:56:57;13.20;99.90
31809;DHT22;18379;48.208;-1.518;2024-03-29T18:01:58;13.10;99.90
31809;DHT22;18379;48.208;-1.518;2024-03-29T18:06:58;12.90;99.90
31809;DHT22;18379;48.208;-1.518;2024-03-29T18:11:59;12.70;99.90
31809;DHT22;18379;48.208;-1.518;2024-03-29T18:17:00;12.50;99.90
31809;DHT22;18379;48.208;-1.518;2024-03-29T18:22:00;12.40;99.90
31809;DHT22;18379;48.208;-1.518;2024-03-29T18:27:01;12.40;99.90
31809;DHT22;18379;48.208;-1.518;2024-03-29T18:32:02;12.40;99.90
31809;DHT22;18379;48.208;-1.518;2024-03-29T18:37:03;12.30;99.90
31809;DHT22;18379;48.208;-1.518;2024-03-29T18:42:03;12.20;99.90
31809;DHT22;18379;48.208;-1.518;2024-03-29T18:47:04;12.20;99.90
31809;DHT22;18379;48.208;-1.518;2024-03-29T18:52:05;12.20;99.90
31809;DHT22;18379;48.208;-1.518;2024-03-29T18:57:06;12.10;99.90
31809;DHT22;18379;48.208;-1.518;2024-03-29T19:02:07;12.10;99.90
31809;DHT22;18379;48.208;-1.518;2024-03-29T19:07:08;12.20;99.90
31809;DHT22;18379;48.208;-1.518;2024-03-29T19:12:09;12.10;99.90
31809;DHT22;18379;48.208;-1.518;2024-03-29T19:17:09;12.00;99.90
31809;DHT22;18379;48.208;-1.518;2024-03-29T19:22:11;11.90;99.90
31809;DHT22;18379;48.208;-1.518;2024-03-29T19:27:12;11.70;99.90
31809;DHT22;18379;48.208;-1.518;2024-03-29T19:32:13;11.60;99.90
31809;DHT22;18379;48.208;-1.518;2024-03-29T19:37:13;11.60;99.90
31809;DHT22;18379;48.208;-1.518;2024-03-29T19:42:14;11.50;99.90
31809;DHT22;18379;48.208;-1.518;2024-03-29T19:47:15;11.40;99.90
31809;DHT22;18379;48.208;-1.518;2024-03-29T19:52:15;11.50;99.90
31809;DHT22;18379;48.208;-1.518;2024-03-29T19:57:16;11.40;99.90
31809;DHT22;18379;48.208;-1.518;2024-03-29T20:02:17;11.40;99.90
31809;DHT22;18379;48.208;-1.518;2024-03-29T20:07:18;11.30;99.90
31809;DHT22;18379;48.208;-1.518;2024-03-29T20:12:19;11.20;99.90
31809;DHT22;18379;48.208;-1.518;2024-03-29T20:17:19;11.20;99.90
31809;DHT22;18379;48.208;-1.518;2024-03-29T20:22:20;11.20;99.90
31809;DHT22;18379;48.208;-1.518;2024-03-29T20:27:20;11.20;99.90
31809;DHT22;18379;48.208;-1.518;2024-03-29T20:32:23;10.90;99.90
31809;DHT22;18379;48.208;-1.518;2024-03-29T20:37:24;10.70;99.90
31809;DHT22;18379;48.208;-1.518;2024-03-29T20:42:24;10.70;99.90
31809;DHT22;18379;48.208;-1.518;2024-03-29T20:47:25;10.70;99.90
31809;DHT22;18379;48.208;-1.518;2024-03-29T20:52:26;10.70;99.90
31809;DHT22;18379;48.208;-1.518;2024-03-29T20:57:26;10.70;99.90
31809;DHT22;18379;48.208;-1.518;2024-03-29T21:02:27;10.80;99.90
31809;DHT22;18379;48.208;-1.518;2024-03-29T21:07:47;10.80;99.90
31809;DHT22;18379;48.208;-1.518;2024-03-29T21:12:48;10.70;99.90
31809;DHT22;18379;48.208;-1.518;2024-03-29T21:17:49;10.60;99.90
31809;DHT22;18379;48.208;-1.518;2024-03-29T21:22:51;10.70;99.90
31809;DHT22;18379;48.208;-1.518;2024-03-29T21:27:52;10.70;99.90
31809;DHT22;18379;48.208;-1.518;2024-03-29T21:32:58;10.70;99.90
31809;DHT22;18379;48.208;-1.518;2024-03-29T21:37:59;10.70;99.90
31809;DHT22;18379;48.208;-1.518;2024-03-29T21:42:59;10.70;99.90
31809;DHT22;18379;48.208;-1.518;2024-03-29T21:48:00;10.70;99.90
31809;DHT22;18379;48.208;-1.518;2024-03-29T21:53:01;10.70;99.90
31809;DHT22;18379;48.208;-1.518;2024-03-29T21:58:03;10.60;99.90
31809;DHT22;18379;48.208;-1.518;2024-03-29T22:03:04;10.50;99.90
31809;DHT22;18379;48.208;-1.518;2024-03-29T22:08:05;10.50;99.90
31809;DHT22;18379;48.208;-1.518;2024-03-29T22:13:06;10.50;99.90
31809;DHT22;18379;48.208;-1.518;2024-03-29T22:18:07;10.50;99.90
31809;DHT22;18379;48.208;-1.518;2024-03-29T22:23:07;10.40;99.90
31809;DHT22;18379;48.208;-1.518;2024-03-29T22:28:08;10.40;99.90
31809;DHT22;18379;48.208;-1.518;2024-03-29T22:33:08;10.40;99.90
31809;DHT22;18379;48.208;-1.518;2024-03-29T22:38:09;10.30;99.90
31809;DHT22;18379;48.208;-1.518;2024-03-29T22:43:10;10.30;99.90
31809;DHT22;18379;48.208;-1.518;2024-03-29T22:48:10;10.20;99.90
31809;DHT22;18379;48.208;-1.518;2024-03-29T22:53:11;10.20;99.90
31809;DHT22;18379;48.208;-1.518;2024-03-29T22:58:12;10.20;99.90
31809;DHT22;18379;48.208;-1.518;2024-03-29T23:03:13;10.20;99.90
31809;DHT22;18379;48.208;-1.518;2024-03-29T23:08:13;10.10;99.90
31809;DHT22;18379;48.208;-1.518;2024-03-29T23:13:14;10.10;99.90
31809;DHT22;18379;48.208;-1.518;2024-03-29T23:18:15;10.10;99.90
31809;DHT22;18379;48.208;-1.518;2024-03-29T23:23:15;10.00;99.90
31809;DHT22;18379;48.208;-1.518;2024-03-29T23:28:16;10.00;99.90
31809;DHT22;18379;48.208;-1.518;2024-03-29T23:33:17;10.00;99.90
31809;DHT22;18379;48.208;-1.518;2024-03-29T23:38:17;10.00;99.90
31809;DHT22;18379;48.208;-1.518;2024-03-29T23:43:18;10.00;99.90
31809;DHT22;18379;48.208;-1.518;2024-03-29T23:48:19;10.00;99.90
31809;DHT22;18379;48.208;-1.518;2024-03-29T23:53:19;9.90;99.90
31809;DHT22;18379;48.208;-1.518;2024-03-29T23:58:25;9.80;99.90
